sensor_id;sensor_type;location;lat;lon;timestamp;P1;durP1;ratioP1;P2;durP2;ratioP2
9597;SDS011;4837;50.890;4.724;2023-07-29T00:01:07;1.98;;;1.70;;
9597;SDS011;4837;50.890;4.724;2023-07-29T00:03:33;2.45;;;1.52;;
9597;SDS011;4837;50.890;4.724;2023-07-29T00:05:59;2.08;;;1.88;;
9597;SDS011;4837;50.890;4.724;2023-07-29T00:08:25;1.70;;;1.60;;
9597;SDS011;4837;50.890;4.724;2023-07-29T00:10:51;2.38;;;1.60;;
9597;SDS011;4837;50.890;4.724;2023-07-29T00:13:18;2.67;;;2.05;;
9597;SDS011;4837;50.890;4.724;2023-07-29T00:15:44;1.95;;;1.80;;
9597;SDS011;4837;50.890;4.724;2023-07-29T00:18:10;2.58;;;1.92;;
9597;SDS011;4837;50.890;4.724;2023-07-29T00:20:36;5.30;;;1.67;;
9597;SDS011;4837;50.890;4.724;2023-07-29T00:23:02;4.22;;;1.88;;
9597;SDS011;4837;50.890;4.724;2023-07-29T00:25:28;1.95;;;1.70;;
9597;SDS011;4837;50.890;4.724;2023-07-29T00:27:55;1.70;;;1.60;;
9597;SDS011;4837;50.890;4.724;2023-07-29T00:30:22;1.73;;;1.50;;
9597;SDS011;4837;50.890;4.724;2023-07-29T00:32:48;2.85;;;1.60;;
9597;SDS011;4837;50.890;4.724;2023-07-29T00:35:14;2.58;;;1.80;;
9597;SDS011;4837;50.890;4.724;2023-07-29T00:37:40;2.33;;;1.73;;
9597;SDS011;4837;50.890;4.724;2023-07-29T00:40:09;2.22;;;2.03;;
9597;SDS011;4837;50.890;4.724;2023-07-29T00:42:38;2.20;;;1.75;;
9597;SDS011;4837;50.890;4.724;2023-07-29T00:45:05;1.98;;;1.70;;
9597;SDS011;4837;50.890;4.724;2023-07-29T00:47:32;3.35;;;1.63;;
9597;SDS011;4837;50.890;4.724;2023-07-29T00:49:59;1.88;;;1.55;;
9597;SDS011;4837;50.890;4.724;2023-07-29T00:52:25;1.42;;;1.33;;
9597;SDS011;4837;50.890;4.724;2023-07-29T00:54:51;2.63;;;1.73;;
9597;SDS011;4837;50.890;4.724;2023-07-29T00:57:17;3.05;;;1.90;;
9597;SDS011;4837;50.890;4.724;2023-07-29T00:59:45;3.30;;;1.65;;
9597;SDS011;4837;50.890;4.724;2023-07-29T01:02:11;2.42;;;1.58;;
9597;SDS011;4837;50.890;4.724;2023-07-29T01:04:38;2.60;;;1.42;;
9597;SDS011;4837;50.890;4.724;2023-07-29T01:09:57;2.58;;;1.58;;
9597;SDS011;4837;50.890;4.724;2023-07-29T01:17:40;2.97;;;1.85;;
9597;SDS011;4837;50.890;4.724;2023-07-29T01:20:08;2.25;;;1.20;;
9597;SDS011;4837;50.890;4.724;2023-07-29T01:22:35;2.17;;;1.67;;
9597;SDS011;4837;50.890;4.724;2023-07-29T01:25:02;2.53;;;1.60;;
9597;SDS011;4837;50.890;4.724;2023-07-29T01:27:29;5.85;;;1.60;;
9597;SDS011;4837;50.890;4.724;2023-07-29T01:29:56;4.55;;;1.40;;
9597;SDS011;4837;50.890;4.724;2023-07-29T01:34:50;2.55;;;1.63;;
9597;SDS011;4837;50.890;4.724;2023-07-29T01:37:22;2.25;;;1.42;;
9597;SDS011;4837;50.890;4.724;2023-07-29T01:39:50;3.25;;;1.35;;
9597;SDS011;4837;50.890;4.724;2023-07-29T01:42:18;2.00;;;1.35;;
9597;SDS011;4837;50.890;4.724;2023-07-29T01:44:45;3.05;;;1.50;;
9597;SDS011;4837;50.890;4.724;2023-07-29T01:47:11;1.40;;;1.30;;
9597;SDS011;4837;50.890;4.724;2023-07-29T01:49:37;1.65;;;1.20;;
9597;SDS011;4837;50.890;4.724;2023-07-29T01:52:03;1.88;;;1.30;;
9597;SDS011;4837;50.890;4.724;2023-07-29T01:54:29;1.30;;;1.20;;
9597;SDS011;4837;50.890;4.724;2023-07-29T01:56:56;1.65;;;1.40;;
9597;SDS011;4837;50.890;4.724;2023-07-29T01:59:22;1.70;;;1.40;;
9597;SDS011;4837;50.890;4.724;2023-07-29T02:01:48;2.83;;;1.60;;
9597;SDS011;4837;50.890;4.724;2023-07-29T02:04:14;1.90;;;1.40;;
9597;SDS011;4837;50.890;4.724;2023-07-29T02:06:40;2.33;;;1.35;;
9597;SDS011;4837;50.890;4.724;2023-07-29T02:09:07;3.25;;;1.70;;
9597;SDS011;4837;50.890;4.724;2023-07-29T02:11:33;1.90;;;1.40;;
9597;SDS011;4837;50.890;4.724;2023-07-29T02:13:59;1.80;;;1.50;;
9597;SDS011;4837;50.890;4.724;2023-07-29T02:16:25;2.15;;;1.40;;
9597;SDS011;4837;50.890;4.724;2023-07-29T02:18:51;3.22;;;1.70;;
9597;SDS011;4837;50.890;4.724;2023-07-29T02:21:17;1.73;;;1.60;;
9597;SDS011;4837;50.890;4.724;2023-07-29T02:23:43;3.33;;;1.73;;
9597;SDS011;4837;50.890;4.724;2023-07-29T02:26:10;2.85;;;1.92;;
9597;SDS011;4837;50.890;4.724;2023-07-29T02:28:37;2.88;;;1.55;;
9597;SDS011;4837;50.890;4.724;2023-07-29T02:31:12;2.17;;;1.70;;
9597;SDS011;4837;50.890;4.724;2023-07-29T02:33:38;2.30;;;1.70;;
9597;SDS011;4837;50.890;4.724;2023-07-29T02:36:04;2.42;;;1.90;;
9597;SDS011;4837;50.890;4.724;2023-07-29T02:38:30;1.98;;;1.55;;
9597;SDS011;4837;50.890;4.724;2023-07-29T02:40:56;3.28;;;1.60;;
9597;SDS011;4837;50.890;4.724;2023-07-29T02:43:23;3.65;;;1.75;;
9597;SDS011;4837;50.890;4.724;2023-07-29T02:45:49;2.15;;;1.73;;
9597;SDS011;4837;50.890;4.724;2023-07-29T02:48:15;1.73;;;1.45;;
9597;SDS011;4837;50.890;4.724;2023-07-29T02:50:41;1.73;;;1.63;;
9597;SDS011;4837;50.890;4.724;2023-07-29T02:53:07;1.85;;;1.67;;
9597;SDS011;4837;50.890;4.724;2023-07-29T02:55:33;2.05;;;1.80;;
9597;SDS011;4837;50.890;4.724;2023-07-29T02:58:00;4.10;;;2.08;;
9597;SDS011;4837;50.890;4.724;2023-07-29T03:00:26;2.42;;;1.55;;
9597;SDS011;4837;50.890;4.724;2023-07-29T03:02:52;3.28;;;1.95;;
9597;SDS011;4837;50.890;4.724;2023-07-29T03:05:19;3.90;;;1.85;;
9597;SDS011;4837;50.890;4.724;2023-07-29T03:07:45;2.67;;;2.03;;
9597;SDS011;4837;50.890;4.724;2023-07-29T03:10:11;3.05;;;2.00;;
9597;SDS011;4837;50.890;4.724;2023-07-29T03:12:38;2.90;;;1.70;;
9597;SDS011;4837;50.890;4.724;2023-07-29T03:15:04;3.10;;;1.98;;
9597;SDS011;4837;50.890;4.724;2023-07-29T03:17:31;3.50;;;2.22;;
9597;SDS011;4837;50.890;4.724;2023-07-29T03:19:57;6.78;;;1.88;;
9597;SDS011;4837;50.890;4.724;2023-07-29T03:22:23;2.78;;;1.80;;
9597;SDS011;4837;50.890;4.724;2023-07-29T03:24:49;2.17;;;1.85;;
9597;SDS011;4837;50.890;4.724;2023-07-29T03:27:15;2.72;;;1.88;;
9597;SDS011;4837;50.890;4.724;2023-07-29T03:29:41;1.70;;;1.60;;
9597;SDS011;4837;50.890;4.724;2023-07-29T03:32:08;2.72;;;2.05;;
9597;SDS011;4837;50.890;4.724;2023-07-29T03:34:34;2.95;;;1.65;;
9597;SDS011;4837;50.890;4.724;2023-07-29T03:37:00;5.05;;;1.98;;
9597;SDS011;4837;50.890;4.724;2023-07-29T03:39:27;2.00;;;1.48;;
9597;SDS011;4837;50.890;4.724;2023-07-29T03:41:53;3.08;;;1.90;;
9597;SDS011;4837;50.890;4.724;2023-07-29T03:44:19;3.75;;;1.90;;
9597;SDS011;4837;50.890;4.724;2023-07-29T03:46:45;2.25;;;1.80;;
9597;SDS011;4837;50.890;4.724;2023-07-29T03:49:11;3.50;;;1.90;;
9597;SDS011;4837;50.890;4.724;2023-07-29T03:51:37;2.72;;;2.15;;
9597;SDS011;4837;50.890;4.724;2023-07-29T03:54:04;2.25;;;1.80;;
9597;SDS011;4837;50.890;4.724;2023-07-29T03:56:30;3.78;;;2.03;;
9597;SDS011;4837;50.890;4.724;2023-07-29T03:59:03;2.28;;;1.75;;
9597;SDS011;4837;50.890;4.724;2023-07-29T04:01:29;2.10;;;1.83;;
9597;SDS011;4837;50.890;4.724;2023-07-29T04:03:55;2.15;;;1.95;;
9597;SDS011;4837;50.890;4.724;2023-07-29T04:06:22;2.20;;;2.00;;
9597;SDS011;4837;50.890;4.724;2023-07-29T04:08:48;5.15;;;1.80;;
9597;SDS011;4837;50.890;4.724;2023-07-29T04:11:14;2.33;;;1.65;;
9597;SDS011;4837;50.890;4.724;2023-07-29T04:13:40;2.83;;;1.90;;
9597;SDS011;4837;50.890;4.724;2023-07-29T04:16:07;3.67;;;1.98;;
9597;SDS011;4837;50.890;4.724;2023-07-29T04:18:33;2.28;;;1.90;;
9597;SDS011;4837;50.890;4.724;2023-07-29T04:20:59;3.08;;;2.10;;
9597;SDS011;4837;50.890;4.724;2023-07-29T04:23:25;3.00;;;1.77;;
9597;SDS011;4837;50.890;4.724;2023-07-29T04:25:51;2.78;;;2.03;;
9597;SDS011;4837;50.890;4.724;2023-07-29T04:28:18;3.22;;;1.90;;
9597;SDS011;4837;50.890;4.724;2023-07-29T04:30:44;2.33;;;1.90;;
9597;SDS011;4837;50.890;4.724;2023-07-29T04:33:10;5.03;;;1.90;;
9597;SDS011;4837;50.890;4.724;2023-07-29T04:35:36;3.85;;;2.00;;
9597;SDS011;4837;50.890;4.724;2023-07-29T04:38:02;6.05;;;2.38;;
9597;SDS011;4837;50.890;4.724;2023-07-29T04:40:28;4.57;;;1.88;;
9597;SDS011;4837;50.890;4.724;2023-07-29T04:42:54;4.00;;;2.08;;
9597;SDS011;4837;50.890;4.724;2023-07-29T04:45:21;3.35;;;1.70;;
9597;SDS011;4837;50.890;4.724;2023-07-29T04:47:47;5.03;;;2.20;;
9597;SDS011;4837;50.890;4.724;2023-07-29T04:50:13;3.55;;;2.05;;
9597;SDS011;4837;50.890;4.724;2023-07-29T04:52:39;2.55;;;1.75;;
9597;SDS011;4837;50.890;4.724;2023-07-29T04:55:05;3.08;;;1.92;;
9597;SDS011;4837;50.890;4.724;2023-07-29T04:57:31;3.15;;;2.10;;
9597;SDS011;4837;50.890;4.724;2023-07-29T04:59:58;2.35;;;1.90;;
9597;SDS011;4837;50.890;4.724;2023-07-29T05:02:24;2.60;;;2.15;;
9597;SDS011;4837;50.890;4.724;2023-07-29T05:04:51;4.15;;;2.33;;
9597;SDS011;4837;50.890;4.724;2023-07-29T05:07:18;2.20;;;1.85;;
9597;SDS011;4837;50.890;4.724;2023-07-29T05:09:44;3.65;;;1.90;;
9597;SDS011;4837;50.890;4.724;2023-07-29T05:12:10;3.13;;;1.88;;
9597;SDS011;4837;50.890;4.724;2023-07-29T05:14:36;2.20;;;2.00;;
9597;SDS011;4837;50.890;4.724;2023-07-29T05:17:02;4.30;;;1.90;;
9597;SDS011;4837;50.890;4.724;2023-07-29T05:19:28;2.05;;;1.55;;
9597;SDS011;4837;50.890;4.724;2023-07-29T05:21:55;3.55;;;2.10;;
9597;SDS011;4837;50.890;4.724;2023-07-29T05:24:22;2.35;;;1.75;;
9597;SDS011;4837;50.890;4.724;2023-07-29T05:26:48;3.03;;;1.50;;
9597;SDS011;4837;50.890;4.724;2023-07-29T05:29:15;4.00;;;1.77;;
9597;SDS011;4837;50.890;4.724;2023-07-29T05:31:41;4.28;;;1.73;;
9597;SDS011;4837;50.890;4.724;2023-07-29T05:34:07;3.63;;;1.70;;
9597;SDS011;4837;50.890;4.724;2023-07-29T05:36:34;2.70;;;1.67;;
9597;SDS011;4837;50.890;4.724;2023-07-29T05:39:00;2.00;;;1.73;;
9597;SDS011;4837;50.890;4.724;2023-07-29T05:41:26;2.92;;;1.60;;
9597;SDS011;4837;50.890;4.724;2023-07-29T05:43:54;2.67;;;1.50;;
9597;SDS011;4837;50.890;4.724;2023-07-29T05:46:20;2.45;;;1.52;;
9597;SDS011;4837;50.890;4.724;2023-07-29T05:48:46;3.08;;;1.70;;
9597;SDS011;4837;50.890;4.724;2023-07-29T05:51:12;2.42;;;1.40;;
9597;SDS011;4837;50.890;4.724;2023-07-29T05:53:38;4.85;;;1.70;;
9597;SDS011;4837;50.890;4.724;2023-07-29T05:56:04;3.72;;;1.50;;
9597;SDS011;4837;50.890;4.724;2023-07-29T05:58:30;3.38;;;1.60;;
9597;SDS011;4837;50.890;4.724;2023-07-29T06:00:57;1.60;;;1.48;;
9597;SDS011;4837;50.890;4.724;2023-07-29T06:03:23;4.68;;;1.63;;
9597;SDS011;4837;50.890;4.724;2023-07-29T06:05:49;2.20;;;1.50;;
9597;SDS011;4837;50.890;4.724;2023-07-29T06:08:16;1.83;;;1.40;;
9597;SDS011;4837;50.890;4.724;2023-07-29T06:10:42;3.20;;;1.38;;
9597;SDS011;4837;50.890;4.724;2023-07-29T06:13:08;2.92;;;1.40;;
9597;SDS011;4837;50.890;4.724;2023-07-29T06:15:34;3.97;;;1.50;;
9597;SDS011;4837;50.890;4.724;2023-07-29T06:18:00;7.63;;;1.40;;
9597;SDS011;4837;50.890;4.724;2023-07-29T06:20:27;2.72;;;1.55;;
9597;SDS011;4837;50.890;4.724;2023-07-29T06:22:53;3.95;;;1.60;;
9597;SDS011;4837;50.890;4.724;2023-07-29T06:25:19;2.10;;;1.45;;
9597;SDS011;4837;50.890;4.724;2023-07-29T06:27:45;4.60;;;1.70;;
9597;SDS011;4837;50.890;4.724;2023-07-29T06:30:11;2.17;;;1.35;;
9597;SDS011;4837;50.890;4.724;2023-07-29T06:32:37;3.65;;;1.63;;
9597;SDS011;4837;50.890;4.724;2023-07-29T06:35:04;2.13;;;1.33;;
9597;SDS011;4837;50.890;4.724;2023-07-29T06:37:30;2.45;;;1.38;;
9597;SDS011;4837;50.890;4.724;2023-07-29T06:39:58;1.67;;;1.35;;
9597;SDS011;4837;50.890;4.724;2023-07-29T06:42:24;1.40;;;1.30;;
9597;SDS011;4837;50.890;4.724;2023-07-29T06:44:50;3.30;;;1.30;;
9597;SDS011;4837;50.890;4.724;2023-07-29T06:47:16;4.28;;;1.20;;
9597;SDS011;4837;50.890;4.724;2023-07-29T06:49:42;1.67;;;1.15;;
9597;SDS011;4837;50.890;4.724;2023-07-29T06:52:08;1.98;;;1.35;;
9597;SDS011;4837;50.890;4.724;2023-07-29T06:54:35;1.13;;;1.00;;
9597;SDS011;4837;50.890;4.724;2023-07-29T06:57:01;6.07;;;1.45;;
9597;SDS011;4837;50.890;4.724;2023-07-29T06:59:27;1.35;;;1.25;;
9597;SDS011;4837;50.890;4.724;2023-07-29T07:01:53;1.33;;;1.23;;
9597;SDS011;4837;50.890;4.724;2023-07-29T07:04:20;2.60;;;1.27;;
9597;SDS011;4837;50.890;4.724;2023-07-29T07:06:46;2.70;;;1.35;;
9597;SDS011;4837;50.890;4.724;2023-07-29T07:09:12;1.73;;;1.30;;
9597;SDS011;4837;50.890;4.724;2023-07-29T07:11:38;2.80;;;1.38;;
9597;SDS011;4837;50.890;4.724;2023-07-29T07:14:04;2.03;;;1.20;;
9597;SDS011;4837;50.890;4.724;2023-07-29T07:16:30;3.78;;;1.30;;
9597;SDS011;4837;50.890;4.724;2023-07-29T07:18:57;2.38;;;1.70;;
9597;SDS011;4837;50.890;4.724;2023-07-29T07:21:23;1.75;;;1.35;;
9597;SDS011;4837;50.890;4.724;2023-07-29T07:23:50;1.73;;;1.30;;
9597;SDS011;4837;50.890;4.724;2023-07-29T07:26:16;1.13;;;1.00;;
9597;SDS011;4837;50.890;4.724;2023-07-29T07:28:42;2.20;;;1.63;;
9597;SDS011;4837;50.890;4.724;2023-07-29T07:31:08;1.65;;;1.20;;
9597;SDS011;4837;50.890;4.724;2023-07-29T07:33:34;2.10;;;1.40;;
9597;SDS011;4837;50.890;4.724;2023-07-29T07:36:00;3.97;;;1.35;;
9597;SDS011;4837;50.890;4.724;2023-07-29T07:38:27;2.15;;;1.08;;
9597;SDS011;4837;50.890;4.724;2023-07-29T07:40:54;1.73;;;1.20;;
9597;SDS011;4837;50.890;4.724;2023-07-29T07:43:20;2.03;;;1.23;;
9597;SDS011;4837;50.890;4.724;2023-07-29T07:45:46;2.85;;;1.30;;
9597;SDS011;4837;50.890;4.724;2023-07-29T07:48:14;1.38;;;1.27;;
9597;SDS011;4837;50.890;4.724;2023-07-29T07:50:42;1.45;;;1.25;;
9597;SDS011;4837;50.890;4.724;2023-07-29T07:53:08;1.73;;;1.30;;
9597;SDS011;4837;50.890;4.724;2023-07-29T07:55:34;1.77;;;1.17;;
9597;SDS011;4837;50.890;4.724;2023-07-29T07:58:00;1.67;;;1.20;;
9597;SDS011;4837;50.890;4.724;2023-07-29T08:00:26;1.60;;;1.17;;
9597;SDS011;4837;50.890;4.724;2023-07-29T08:02:53;2.70;;;1.60;;
9597;SDS011;4837;50.890;4.724;2023-07-29T08:05:19;1.60;;;1.30;;
9597;SDS011;4837;50.890;4.724;2023-07-29T08:07:45;1.40;;;1.27;;
9597;SDS011;4837;50.890;4.724;2023-07-29T08:10:11;1.67;;;1.30;;
9597;SDS011;4837;50.890;4.724;2023-07-29T08:12:37;1.95;;;1.00;;
9597;SDS011;4837;50.890;4.724;2023-07-29T08:15:04;1.88;;;1.52;;
9597;SDS011;4837;50.890;4.724;2023-07-29T08:17:30;1.30;;;1.10;;
9597;SDS011;4837;50.890;4.724;2023-07-29T08:19:56;2.25;;;1.30;;
9597;SDS011;4837;50.890;4.724;2023-07-29T08:22:22;1.77;;;1.20;;
9597;SDS011;4837;50.890;4.724;2023-07-29T08:24:49;2.53;;;1.23;;
9597;SDS011;4837;50.890;4.724;2023-07-29T08:27:15;1.42;;;1.20;;
9597;SDS011;4837;50.890;4.724;2023-07-29T08:29:41;2.90;;;1.27;;
9597;SDS011;4837;50.890;4.724;2023-07-29T08:32:07;2.42;;;1.30;;
9597;SDS011;4837;50.890;4.724;2023-07-29T08:34:33;1.70;;;1.20;;
9597;SDS011;4837;50.890;4.724;2023-07-29T08:36:59;2.10;;;1.05;;
9597;SDS011;4837;50.890;4.724;2023-07-29T08:39:25;1.42;;;1.30;;
9597;SDS011;4837;50.890;4.724;2023-07-29T08:42:07;1.20;;;0.93;;
9597;SDS011;4837;50.890;4.724;2023-07-29T08:44:40;1.92;;;1.13;;
9597;SDS011;4837;50.890;4.724;2023-07-29T08:47:07;2.10;;;1.38;;
9597;SDS011;4837;50.890;4.724;2023-07-29T08:49:33;1.52;;;1.10;;
9597;SDS011;4837;50.890;4.724;2023-07-29T08:52:00;3.35;;;1.23;;
9597;SDS011;4837;50.890;4.724;2023-07-29T08:54:26;1.55;;;1.30;;
9597;SDS011;4837;50.890;4.724;2023-07-29T08:56:53;1.50;;;1.20;;
9597;SDS011;4837;50.890;4.724;2023-07-29T08:59:19;1.33;;;1.20;;
9597;SDS011;4837;50.890;4.724;2023-07-29T09:01:46;2.40;;;1.38;;
9597;SDS011;4837;50.890;4.724;2023-07-29T09:04:12;2.17;;;1.20;;
9597;SDS011;4837;50.890;4.724;2023-07-29T09:06:39;2.63;;;1.27;;
9597;SDS011;4837;50.890;4.724;2023-07-29T09:09:07;1.63;;;1.00;;
9597;SDS011;4837;50.890;4.724;2023-07-29T09:11:34;1.67;;;1.33;;
9597;SDS011;4837;50.890;4.724;2023-07-29T09:14:01;2.17;;;1.40;;
9597;SDS011;4837;50.890;4.724;2023-07-29T09:16:27;1.10;;;1.00;;
9597;SDS011;4837;50.890;4.724;2023-07-29T09:18:53;2.65;;;1.35;;
9597;SDS011;4837;50.890;4.724;2023-07-29T09:21:24;1.10;;;1.00;;
9597;SDS011;4837;50.890;4.724;2023-07-29T09:23:51;3.03;;;1.15;;
9597;SDS011;4837;50.890;4.724;2023-07-29T09:26:28;2.88;;;1.10;;
9597;SDS011;4837;50.890;4.724;2023-07-29T09:28:55;2.75;;;1.40;;
9597;SDS011;4837;50.890;4.724;2023-07-29T09:31:22;1.52;;;1.20;;
9597;SDS011;4837;50.890;4.724;2023-07-29T09:33:48;1.48;;;1.30;;
9597;SDS011;4837;50.890;4.724;2023-07-29T09:36:14;1.40;;;1.20;;
9597;SDS011;4837;50.890;4.724;2023-07-29T09:38:41;2.40;;;1.30;;
9597;SDS011;4837;50.890;4.724;2023-07-29T09:41:07;2.95;;;1.30;;
9597;SDS011;4837;50.890;4.724;2023-07-29T09:43:33;1.88;;;1.40;;
9597;SDS011;4837;50.890;4.724;2023-07-29T09:46:00;2.30;;;1.42;;
9597;SDS011;4837;50.890;4.724;2023-07-29T09:48:27;1.50;;;1.23;;
9597;SDS011;4837;50.890;4.724;2023-07-29T09:50:54;3.72;;;1.73;;
9597;SDS011;4837;50.890;4.724;2023-07-29T09:53:21;1.63;;;1.52;;
9597;SDS011;4837;50.890;4.724;2023-07-29T09:55:47;3.08;;;1.60;;
9597;SDS011;4837;50.890;4.724;2023-07-29T09:58:15;3.90;;;1.30;;
9597;SDS011;4837;50.890;4.724;2023-07-29T10:00:45;2.30;;;1.40;;
9597;SDS011;4837;50.890;4.724;2023-07-29T10:03:11;1.98;;;1.30;;
9597;SDS011;4837;50.890;4.724;2023-07-29T10:05:38;2.47;;;1.50;;
9597;SDS011;4837;50.890;4.724;2023-07-29T10:08:05;2.33;;;1.63;;
9597;SDS011;4837;50.890;4.724;2023-07-29T10:10:31;1.40;;;1.30;;
9597;SDS011;4837;50.890;4.724;2023-07-29T10:12:57;2.45;;;1.70;;
9597;SDS011;4837;50.890;4.724;2023-07-29T10:15:24;1.60;;;1.50;;
9597;SDS011;4837;50.890;4.724;2023-07-29T10:17:50;1.60;;;1.48;;
9597;SDS011;4837;50.890;4.724;2023-07-29T10:20:16;1.95;;;1.48;;
9597;SDS011;4837;50.890;4.724;2023-07-29T10:22:43;2.00;;;1.55;;
9597;SDS011;4837;50.890;4.724;2023-07-29T10:25:19;2.17;;;1.65;;
9597;SDS011;4837;50.890;4.724;2023-07-29T10:27:48;2.40;;;1.40;;
9597;SDS011;4837;50.890;4.724;2023-07-29T10:30:15;3.10;;;1.60;;
9597;SDS011;4837;50.890;4.724;2023-07-29T10:32:42;1.70;;;1.60;;
9597;SDS011;4837;50.890;4.724;2023-07-29T10:35:09;3.33;;;1.73;;
9597;SDS011;4837;50.890;4.724;2023-07-29T10:37:35;2.25;;;1.50;;
9597;SDS011;4837;50.890;4.724;2023-07-29T10:40:05;2.45;;;1.67;;
9597;SDS011;4837;50.890;4.724;2023-07-29T10:42:31;1.75;;;1.60;;
9597;SDS011;4837;50.890;4.724;2023-07-29T10:44:57;1.65;;;1.52;;
9597;SDS011;4837;50.890;4.724;2023-07-29T10:47:27;7.57;;;3.00;;
9597;SDS011;4837;50.890;4.724;2023-07-29T10:49:55;3.63;;;2.08;;
9597;SDS011;4837;50.890;4.724;2023-07-29T10:55:00;4.15;;;2.30;;
9597;SDS011;4837;50.890;4.724;2023-07-29T10:57:33;3.30;;;2.10;;
9597;SDS011;4837;50.890;4.724;2023-07-29T10:59:59;2.03;;;1.83;;
9597;SDS011;4837;50.890;4.724;2023-07-29T11:02:30;2.25;;;2.05;;
9597;SDS011;4837;50.890;4.724;2023-07-29T11:04:56;2.10;;;1.90;;
9597;SDS011;4837;50.890;4.724;2023-07-29T11:07:23;2.70;;;1.90;;
9597;SDS011;4837;50.890;4.724;2023-07-29T11:10:00;3.15;;;1.98;;
9597;SDS011;4837;50.890;4.724;2023-07-29T11:12:45;2.97;;;1.77;;
9597;SDS011;4837;50.890;4.724;2023-07-29T11:15:16;2.53;;;1.80;;
9597;SDS011;4837;50.890;4.724;2023-07-29T11:17:50;1.95;;;1.75;;
9597;SDS011;4837;50.890;4.724;2023-07-29T11:20:17;2.10;;;1.88;;
9597;SDS011;4837;50.890;4.724;2023-07-29T11:22:43;2.17;;;1.85;;
9597;SDS011;4837;50.890;4.724;2023-07-29T11:25:14;1.90;;;1.70;;
9597;SDS011;4837;50.890;4.724;2023-07-29T11:27:40;2.78;;;2.10;;
9597;SDS011;4837;50.890;4.724;2023-07-29T11:30:07;2.50;;;1.77;;
9597;SDS011;4837;50.890;4.724;2023-07-29T11:32:34;3.33;;;2.03;;
9597;SDS011;4837;50.890;4.724;2023-07-29T11:35:11;6.45;;;2.30;;
9597;SDS011;4837;50.890;4.724;2023-07-29T11:37:40;4.45;;;1.90;;
9597;SDS011;4837;50.890;4.724;2023-07-29T11:40:06;3.25;;;1.90;;
9597;SDS011;4837;50.890;4.724;2023-07-29T11:42:37;2.88;;;1.90;;
9597;SDS011;4837;50.890;4.724;2023-07-29T11:45:04;3.10;;;2.00;;
9597;SDS011;4837;50.890;4.724;2023-07-29T11:47:32;2.67;;;2.10;;
9597;SDS011;4837;50.890;4.724;2023-07-29T11:50:02;2.10;;;1.90;;
9597;SDS011;4837;50.890;4.724;2023-07-29T11:52:29;3.03;;;2.20;;
9597;SDS011;4837;50.890;4.724;2023-07-29T11:54:56;3.05;;;1.83;;
9597;SDS011;4837;50.890;4.724;2023-07-29T11:57:23;2.00;;;1.48;;
9597;SDS011;4837;50.890;4.724;2023-07-29T11:59:49;2.85;;;1.73;;
9597;SDS011;4837;50.890;4.724;2023-07-29T12:02:16;2.35;;;1.90;;
9597;SDS011;4837;50.890;4.724;2023-07-29T12:04:44;1.60;;;1.50;;
9597;SDS011;4837;50.890;4.724;2023-07-29T12:07:10;1.98;;;1.63;;
9597;SDS011;4837;50.890;4.724;2023-07-29T12:09:38;2.17;;;1.98;;
9597;SDS011;4837;50.890;4.724;2023-07-29T12:12:05;2.17;;;1.88;;
9597;SDS011;4837;50.890;4.724;2023-07-29T12:14:32;2.38;;;1.52;;
9597;SDS011;4837;50.890;4.724;2023-07-29T12:17:02;1.80;;;1.70;;
9597;SDS011;4837;50.890;4.724;2023-07-29T12:19:32;2.00;;;1.60;;
9597;SDS011;4837;50.890;4.724;2023-07-29T12:22:00;2.45;;;2.03;;
9597;SDS011;4837;50.890;4.724;2023-07-29T12:24:26;2.30;;;1.70;;
9597;SDS011;4837;50.890;4.724;2023-07-29T12:26:52;1.90;;;1.80;;
9597;SDS011;4837;50.890;4.724;2023-07-29T12:29:19;1.70;;;1.60;;
9597;SDS011;4837;50.890;4.724;2023-07-29T12:31:45;2.05;;;1.70;;
9597;SDS011;4837;50.890;4.724;2023-07-29T12:34:21;1.95;;;1.65;;
9597;SDS011;4837;50.890;4.724;2023-07-29T12:36:48;2.03;;;1.83;;
9597;SDS011;4837;50.890;4.724;2023-07-29T12:39:21;11.23;;;2.28;;
9597;SDS011;4837;50.890;4.724;2023-07-29T12:41:48;1.90;;;1.80;;
9597;SDS011;4837;50.890;4.724;2023-07-29T12:44:14;1.90;;;1.80;;
9597;SDS011;4837;50.890;4.724;2023-07-29T12:46:41;2.45;;;1.77;;
9597;SDS011;4837;50.890;4.724;2023-07-29T12:49:07;2.35;;;2.15;;
9597;SDS011;4837;50.890;4.724;2023-07-29T12:51:33;1.75;;;1.65;;
9597;SDS011;4837;50.890;4.724;2023-07-29T12:54:00;2.78;;;2.58;;
9597;SDS011;4837;50.890;4.724;2023-07-29T12:56:26;4.57;;;2.78;;
9597;SDS011;4837;50.890;4.724;2023-07-29T12:58:52;2.85;;;2.30;;
9597;SDS011;4837;50.890;4.724;2023-07-29T13:01:18;5.25;;;2.75;;
9597;SDS011;4837;50.890;4.724;2023-07-29T13:03:44;4.80;;;2.55;;
9597;SDS011;4837;50.890;4.724;2023-07-29T13:06:11;3.38;;;2.40;;
9597;SDS011;4837;50.890;4.724;2023-07-29T13:08:37;3.83;;;2.50;;
9597;SDS011;4837;50.890;4.724;2023-07-29T13:11:03;2.67;;;2.22;;
9597;SDS011;4837;50.890;4.724;2023-07-29T13:13:30;5.47;;;2.45;;
9597;SDS011;4837;50.890;4.724;2023-07-29T13:15:56;2.25;;;2.03;;
9597;SDS011;4837;50.890;4.724;2023-07-29T13:18:23;2.10;;;1.95;;
9597;SDS011;4837;50.890;4.724;2023-07-29T13:20:49;2.60;;;2.25;;
9597;SDS011;4837;50.890;4.724;2023-07-29T13:23:15;2.47;;;2.10;;
9597;SDS011;4837;50.890;4.724;2023-07-29T13:25:41;2.13;;;1.73;;
9597;SDS011;4837;50.890;4.724;2023-07-29T13:28:08;2.45;;;2.10;;
9597;SDS011;4837;50.890;4.724;2023-07-29T13:30:34;2.50;;;1.80;;
9597;SDS011;4837;50.890;4.724;2023-07-29T13:33:00;1.95;;;1.67;;
9597;SDS011;4837;50.890;4.724;2023-07-29T13:35:27;2.08;;;1.60;;
9597;SDS011;4837;50.890;4.724;2023-07-29T13:37:53;2.30;;;2.10;;
9597;SDS011;4837;50.890;4.724;2023-07-29T13:40:19;1.77;;;1.67;;
9597;SDS011;4837;50.890;4.724;2023-07-29T13:42:45;2.45;;;1.60;;
9597;SDS011;4837;50.890;4.724;2023-07-29T13:45:11;1.52;;;1.42;;
9597;SDS011;4837;50.890;4.724;2023-07-29T13:47:38;1.83;;;1.73;;
9597;SDS011;4837;50.890;4.724;2023-07-29T13:50:04;2.47;;;1.85;;
9597;SDS011;4837;50.890;4.724;2023-07-29T13:52:32;1.90;;;1.58;;
9597;SDS011;4837;50.890;4.724;2023-07-29T13:54:59;1.92;;;1.67;;
9597;SDS011;4837;50.890;4.724;2023-07-29T13:57:25;1.80;;;1.70;;
9597;SDS011;4837;50.890;4.724;2023-07-29T13:59:51;1.95;;;1.80;;
9597;SDS011;4837;50.890;4.724;2023-07-29T14:02:17;2.58;;;1.88;;
9597;SDS011;4837;50.890;4.724;2023-07-29T14:04:43;2.03;;;1.65;;
9597;SDS011;4837;50.890;4.724;2023-07-29T14:07:09;2.40;;;2.20;;
9597;SDS011;4837;50.890;4.724;2023-07-29T14:09:36;2.72;;;1.50;;
9597;SDS011;4837;50.890;4.724;2023-07-29T14:12:03;2.15;;;1.75;;
9597;SDS011;4837;50.890;4.724;2023-07-29T14:14:29;1.95;;;1.85;;
9597;SDS011;4837;50.890;4.724;2023-07-29T14:16:55;1.77;;;1.67;;
9597;SDS011;4837;50.890;4.724;2023-07-29T14:19:22;1.75;;;1.65;;
9597;SDS011;4837;50.890;4.724;2023-07-29T14:21:48;2.47;;;1.80;;
9597;SDS011;4837;50.890;4.724;2023-07-29T14:24:14;1.90;;;1.80;;
9597;SDS011;4837;50.890;4.724;2023-07-29T14:26:41;3.20;;;1.80;;
9597;SDS011;4837;50.890;4.724;2023-07-29T14:29:07;1.70;;;1.60;;
9597;SDS011;4837;50.890;4.724;2023-07-29T14:31:33;1.65;;;1.52;;
9597;SDS011;4837;50.890;4.724;2023-07-29T14:34:00;1.90;;;1.70;;
9597;SDS011;4837;50.890;4.724;2023-07-29T14:36:26;1.50;;;1.40;;
9597;SDS011;4837;50.890;4.724;2023-07-29T14:38:52;2.40;;;1.60;;
9597;SDS011;4837;50.890;4.724;2023-07-29T14:41:18;1.48;;;1.38;;
9597;SDS011;4837;50.890;4.724;2023-07-29T14:43:44;1.20;;;1.10;;
9597;SDS011;4837;50.890;4.724;2023-07-29T14:46:11;1.50;;;1.40;;
9597;SDS011;4837;50.890;4.724;2023-07-29T14:48:37;1.40;;;1.30;;
9597;SDS011;4837;50.890;4.724;2023-07-29T14:51:03;2.72;;;1.40;;
9597;SDS011;4837;50.890;4.724;2023-07-29T14:53:29;1.35;;;1.25;;
9597;SDS011;4837;50.890;4.724;2023-07-29T14:55:55;1.85;;;1.20;;
9597;SDS011;4837;50.890;4.724;2023-07-29T14:58:21;1.20;;;1.10;;
9597;SDS011;4837;50.890;4.724;2023-07-29T15:00:50;1.63;;;1.52;;
9597;SDS011;4837;50.890;4.724;2023-07-29T15:03:16;2.35;;;1.73;;
9597;SDS011;4837;50.890;4.724;2023-07-29T15:05:42;1.35;;;1.13;;
9597;SDS011;4837;50.890;4.724;2023-07-29T15:08:08;1.38;;;1.20;;
9597;SDS011;4837;50.890;4.724;2023-07-29T15:10:35;1.40;;;1.30;;
9597;SDS011;4837;50.890;4.724;2023-07-29T15:13:01;2.20;;;1.40;;
9597;SDS011;4837;50.890;4.724;2023-07-29T15:15:27;1.20;;;1.10;;
9597;SDS011;4837;50.890;4.724;2023-07-29T15:17:53;2.53;;;1.20;;
9597;SDS011;4837;50.890;4.724;2023-07-29T15:20:22;1.45;;;1.35;;
9597;SDS011;4837;50.890;4.724;2023-07-29T15:22:48;1.48;;;1.20;;
9597;SDS011;4837;50.890;4.724;2023-07-29T15:25:14;1.60;;;1.40;;